sensor_id;sensor_type;location;lat;lon;timestamp;P1;durP1;ratioP1;P2;durP2;ratioP2
22579;SDS011;11456;47.030;15.396;2024-03-25T00:01:23;11.38;;;6.20;;
22579;SDS011;11456;47.030;15.396;2024-03-25T00:03:50;13.77;;;6.75;;
22579;SDS011;11456;47.030;15.396;2024-03-25T00:06:16;12.25;;;6.45;;
22579;SDS011;11456;47.030;15.396;2024-03-25T00:08:41;10.23;;;5.72;;
22579;SDS011;11456;47.030;15.396;2024-03-25T00:11:07;8.70;;;4.80;;
22579;SDS011;11456;47.030;15.396;2024-03-25T00:13:33;10.55;;;5.35;;
22579;SDS011;11456;47.030;15.396;2024-03-25T00:15:59;11.10;;;5.72;;
22579;SDS011;11456;47.030;15.396;2024-03-25T00:18:25;12.48;;;5.95;;
22579;SDS011;11456;47.030;15.396;2024-03-25T00:20:50;12.20;;;6.80;;
22579;SDS011;11456;47.030;15.396;2024-03-25T00:23:17;10.13;;;5.18;;
22579;SDS011;11456;47.030;15.396;2024-03-25T00:25:43;9.32;;;5.35;;
22579;SDS011;11456;47.030;15.396;2024-03-25T00:28:08;6.53;;;3.75;;
22579;SDS011;11456;47.030;15.396;2024-03-25T00:30:34;5.72;;;3.63;;
22579;SDS011;11456;47.030;15.396;2024-03-25T00:33:00;6.75;;;4.20;;
22579;SDS011;11456;47.030;15.396;2024-03-25T00:35:25;6.15;;;3.83;;
22579;SDS011;11456;47.030;15.396;2024-03-25T00:37:52;8.52;;;4.57;;
22579;SDS011;11456;47.030;15.396;2024-03-25T00:40:19;11.20;;;4.65;;
22579;SDS011;11456;47.030;15.396;2024-03-25T00:42:45;10.73;;;5.10;;
22579;SDS011;11456;47.030;15.396;2024-03-25T00:45:11;9.20;;;5.03;;
22579;SDS011;11456;47.030;15.396;2024-03-25T00:47:37;7.75;;;4.55;;
22579;SDS011;11456;47.030;15.396;2024-03-25T00:50:03;9.18;;;4.82;;
22579;SDS011;11456;47.030;15.396;2024-03-25T00:52:29;10.88;;;4.90;;
22579;SDS011;11456;47.030;15.396;2024-03-25T00:54:55;10.15;;;4.90;;
22579;SDS011;11456;47.030;15.396;2024-03-25T00:57:21;12.02;;;5.55;;
22579;SDS011;11456;47.030;15.396;2024-03-25T00:59:46;9.02;;;4.90;;
22579;SDS011;11456;47.030;15.396;2024-03-25T01:02:12;8.32;;;5.13;;
22579;SDS011;11456;47.030;15.396;2024-03-25T01:04:38;12.70;;;4.90;;
22579;SDS011;11456;47.030;15.396;2024-03-25T01:07:03;12.40;;;5.07;;
22579;SDS011;11456;47.030;15.396;2024-03-25T01:09:29;9.30;;;5.78;;
22579;SDS011;11456;47.030;15.396;2024-03-25T01:11:55;9.93;;;6.20;;
22579;SDS011;11456;47.030;15.396;2024-03-25T01:14:21;10.75;;;6.47;;
22579;SDS011;11456;47.030;15.396;2024-03-25T01:16:46;11.02;;;5.63;;
22579;SDS011;11456;47.030;15.396;2024-03-25T01:19:12;9.93;;;5.50;;
22579;SDS011;11456;47.030;15.396;2024-03-25T01:21:38;9.65;;;5.63;;
22579;SDS011;11456;47.030;15.396;2024-03-25T01:24:04;7.47;;;3.95;;
22579;SDS011;11456;47.030;15.396;2024-03-25T01:26:30;8.23;;;4.00;;
22579;SDS011;11456;47.030;15.396;2024-03-25T01:28:55;8.95;;;4.72;;
22579;SDS011;11456;47.030;15.396;2024-03-25T01:31:21;7.43;;;4.60;;
22579;SDS011;11456;47.030;15.396;2024-03-25T01:33:47;9.25;;;5.05;;
22579;SDS011;11456;47.030;15.396;2024-03-25T01:36:12;7.75;;;4.60;;
22579;SDS011;11456;47.030;15.396;2024-03-25T01:38:43;7.60;;;4.50;;
22579;SDS011;11456;47.030;15.396;2024-03-25T01:41:09;10.38;;;5.07;;
22579;SDS011;11456;47.030;15.396;2024-03-25T01:43:36;9.10;;;5.05;;
22579;SDS011;11456;47.030;15.396;2024-03-25T01:46:02;9.55;;;4.50;;
22579;SDS011;11456;47.030;15.396;2024-03-25T01:48:28;8.05;;;4.65;;
22579;SDS011;11456;47.030;15.396;2024-03-25T01:50:54;9.27;;;4.72;;
22579;SDS011;11456;47.030;15.396;2024-03-25T01:53:21;12.43;;;5.50;;
22579;SDS011;11456;47.030;15.396;2024-03-25T01:55:49;9.07;;;4.45;;
22579;SDS011;11456;47.030;15.396;2024-03-25T01:58:19;8.70;;;4.75;;
22579;SDS011;11456;47.030;15.396;2024-03-25T02:00:45;9.20;;;5.25;;
22579;SDS011;11456;47.030;15.396;2024-03-25T02:03:11;6.65;;;4.15;;
22579;SDS011;11456;47.030;15.396;2024-03-25T02:05:37;7.00;;;4.47;;
22579;SDS011;11456;47.030;15.396;2024-03-25T02:08:03;10.82;;;4.93;;
22579;SDS011;11456;47.030;15.396;2024-03-25T02:10:29;8.45;;;4.45;;
22579;SDS011;11456;47.030;15.396;2024-03-25T02:12:55;9.82;;;4.43;;
22579;SDS011;11456;47.030;15.396;2024-03-25T02:15:20;7.00;;;4.68;;
22579;SDS011;11456;47.030;15.396;2024-03-25T02:17:46;13.73;;;4.75;;
22579;SDS011;11456;47.030;15.396;2024-03-25T02:20:12;7.50;;;4.72;;
22579;SDS011;11456;47.030;15.396;2024-03-25T02:22:41;10.52;;;4.70;;
22579;SDS011;11456;47.030;15.396;2024-03-25T02:25:08;7.28;;;4.38;;
22579;SDS011;11456;47.030;15.396;2024-03-25T02:27:35;8.27;;;5.03;;
22579;SDS011;11456;47.030;15.396;2024-03-25T02:32:33;8.32;;;5.05;;
22579;SDS011;11456;47.030;15.396;2024-03-25T02:34:59;10.63;;;4.93;;
22579;SDS011;11456;47.030;15.396;2024-03-25T02:37:27;10.35;;;5.75;;
22579;SDS011;11456;47.030;15.396;2024-03-25T02:39:54;9.88;;;5.30;;
22579;SDS011;11456;47.030;15.396;2024-03-25T02:42:23;10.07;;;4.60;;
22579;SDS011;11456;47.030;15.396;2024-03-25T02:44:50;8.77;;;4.80;;
22579;SDS011;11456;47.030;15.396;2024-03-25T02:47:15;11.38;;;4.97;;
22579;SDS011;11456;47.030;15.396;2024-03-25T02:49:43;13.13;;;4.97;;
22579;SDS011;11456;47.030;15.396;2024-03-25T02:52:08;9.60;;;5.30;;
22579;SDS011;11456;47.030;15.396;2024-03-25T02:54:34;9.73;;;5.35;;
22579;SDS011;11456;47.030;15.396;2024-03-25T02:57:00;11.05;;;4.90;;
22579;SDS011;11456;47.030;15.396;2024-03-25T02:59:25;9.13;;;4.78;;
22579;SDS011;11456;47.030;15.396;2024-03-25T03:01:51;7.85;;;5.00;;
22579;SDS011;11456;47.030;15.396;2024-03-25T03:04:17;9.73;;;5.32;;
22579;SDS011;11456;47.030;15.396;2024-03-25T03:06:43;10.98;;;5.40;;
22579;SDS011;11456;47.030;15.396;2024-03-25T03:09:08;11.65;;;5.38;;
22579;SDS011;11456;47.030;15.396;2024-03-25T03:11:34;9.60;;;5.00;;
22579;SDS011;11456;47.030;15.396;2024-03-25T03:14:00;14.13;;;5.15;;
22579;SDS011;11456;47.030;15.396;2024-03-25T03:16:25;11.27;;;5.53;;
22579;SDS011;11456;47.030;15.396;2024-03-25T03:18:51;8.18;;;4.82;;
22579;SDS011;11456;47.030;15.396;2024-03-25T03:21:17;11.10;;;5.22;;
22579;SDS011;11456;47.030;15.396;2024-03-25T03:23:42;8.73;;;4.70;;
22579;SDS011;11456;47.030;15.396;2024-03-25T03:26:08;9.68;;;4.68;;
22579;SDS011;11456;47.030;15.396;2024-03-25T03:28:34;10.27;;;5.00;;
22579;SDS011;11456;47.030;15.396;2024-03-25T03:30:59;10.93;;;4.85;;
22579;SDS011;11456;47.030;15.396;2024-03-25T03:33:25;13.35;;;4.22;;
22579;SDS011;11456;47.030;15.396;2024-03-25T03:35:51;11.57;;;4.60;;
22579;SDS011;11456;47.030;15.396;2024-03-25T03:38:17;7.63;;;4.70;;
22579;SDS011;11456;47.030;15.396;2024-03-25T03:40:44;8.60;;;4.30;;
22579;SDS011;11456;47.030;15.396;2024-03-25T03:43:20;7.70;;;4.25;;
22579;SDS011;11456;47.030;15.396;2024-03-25T03:45:46;10.18;;;4.90;;
22579;SDS011;11456;47.030;15.396;2024-03-25T03:48:12;10.90;;;4.30;;
22579;SDS011;11456;47.030;15.396;2024-03-25T03:50:37;7.90;;;4.53;;
22579;SDS011;11456;47.030;15.396;2024-03-25T03:53:03;8.18;;;4.15;;
22579;SDS011;11456;47.030;15.396;2024-03-25T03:55:29;4.65;;;3.22;;
22579;SDS011;11456;47.030;15.396;2024-03-25T03:57:55;7.50;;;3.60;;
22579;SDS011;11456;47.030;15.396;2024-03-25T04:00:20;6.28;;;3.75;;
22579;SDS011;11456;47.030;15.396;2024-03-25T04:02:46;6.28;;;3.58;;
22579;SDS011;11456;47.030;15.396;2024-03-25T04:05:12;6.43;;;3.65;;
22579;SDS011;11456;47.030;15.396;2024-03-25T04:07:37;4.57;;;3.33;;
22579;SDS011;11456;47.030;15.396;2024-03-25T04:10:04;20.77;;;4.57;;
22579;SDS011;11456;47.030;15.396;2024-03-25T04:12:30;15.18;;;4.25;;
22579;SDS011;11456;47.030;15.396;2024-03-25T04:14:56;15.55;;;3.67;;
22579;SDS011;11456;47.030;15.396;2024-03-25T04:17:22;5.90;;;3.28;;
22579;SDS011;11456;47.030;15.396;2024-03-25T04:19:48;9.55;;;3.42;;
22579;SDS011;11456;47.030;15.396;2024-03-25T04:22:14;5.25;;;3.38;;
22579;SDS011;11456;47.030;15.396;2024-03-25T04:24:40;5.57;;;3.53;;
22579;SDS011;11456;47.030;15.396;2024-03-25T04:27:06;5.63;;;3.22;;
22579;SDS011;11456;47.030;15.396;2024-03-25T04:29:32;6.72;;;3.50;;
22579;SDS011;11456;47.030;15.396;2024-03-25T04:31:57;5.93;;;3.90;;
22579;SDS011;11456;47.030;15.396;2024-03-25T04:34:23;5.45;;;3.30;;
22579;SDS011;11456;47.030;15.396;2024-03-25T04:36:49;4.47;;;3.30;;
22579;SDS011;11456;47.030;15.396;2024-03-25T04:39:14;11.40;;;3.70;;
22579;SDS011;11456;47.030;15.396;2024-03-25T04:41:40;9.95;;;3.67;;
22579;SDS011;11456;47.030;15.396;2024-03-25T04:44:06;6.35;;;3.38;;
22579;SDS011;11456;47.030;15.396;2024-03-25T04:46:31;6.93;;;3.88;;
22579;SDS011;11456;47.030;15.396;2024-03-25T04:48:57;9.60;;;4.07;;
22579;SDS011;11456;47.030;15.396;2024-03-25T04:51:23;12.18;;;4.45;;
22579;SDS011;11456;47.030;15.396;2024-03-25T04:53:49;8.38;;;3.90;;
22579;SDS011;11456;47.030;15.396;2024-03-25T04:56:15;8.30;;;3.70;;
22579;SDS011;11456;47.030;15.396;2024-03-25T04:58:41;11.63;;;4.40;;
22579;SDS011;11456;47.030;15.396;2024-03-25T05:01:06;7.38;;;3.95;;
22579;SDS011;11456;47.030;15.396;2024-03-25T05:03:32;7.22;;;4.28;;
22579;SDS011;11456;47.030;15.396;2024-03-25T05:05:57;7.47;;;4.05;;
22579;SDS011;11456;47.030;15.396;2024-03-25T05:08:23;6.07;;;4.35;;
22579;SDS011;11456;47.030;15.396;2024-03-25T05:10:50;21.38;;;5.53;;
22579;SDS011;11456;47.030;15.396;2024-03-25T05:13:16;15.45;;;4.80;;
22579;SDS011;11456;47.030;15.396;2024-03-25T05:15:49;6.78;;;4.20;;
22579;SDS011;11456;47.030;15.396;2024-03-25T05:18:16;11.50;;;4.70;;
22579;SDS011;11456;47.030;15.396;2024-03-25T05:20:42;8.02;;;4.07;;
22579;SDS011;11456;47.030;15.396;2024-03-25T05:23:08;9.68;;;4.03;;
22579;SDS011;11456;47.030;15.396;2024-03-25T05:25:34;10.90;;;4.60;;
22579;SDS011;11456;47.030;15.396;2024-03-25T05:28:00;10.88;;;4.47;;
22579;SDS011;11456;47.030;15.396;2024-03-25T05:30:26;9.82;;;4.65;;
22579;SDS011;11456;47.030;15.396;2024-03-25T05:32:52;9.10;;;4.88;;
22579;SDS011;11456;47.030;15.396;2024-03-25T05:35:18;21.27;;;5.15;;
22579;SDS011;11456;47.030;15.396;2024-03-25T05:37:43;15.38;;;4.50;;
22579;SDS011;11456;47.030;15.396;2024-03-25T05:40:09;9.35;;;4.32;;
22579;SDS011;11456;47.030;15.396;2024-03-25T05:42:40;7.68;;;4.97;;
22579;SDS011;11456;47.030;15.396;2024-03-25T05:45:09;16.73;;;6.97;;
22579;SDS011;11456;47.030;15.396;2024-03-25T05:47:35;13.02;;;5.70;;
22579;SDS011;11456;47.030;15.396;2024-03-25T05:50:01;14.50;;;6.55;;
22579;SDS011;11456;47.030;15.396;2024-03-25T05:52:29;17.52;;;7.65;;
22579;SDS011;11456;47.030;15.396;2024-03-25T05:54:55;15.88;;;6.78;;
22579;SDS011;11456;47.030;15.396;2024-03-25T05:57:20;14.95;;;6.95;;
22579;SDS011;11456;47.030;15.396;2024-03-25T05:59:46;11.77;;;5.57;;
22579;SDS011;11456;47.030;15.396;2024-03-25T06:02:12;16.63;;;5.93;;
22579;SDS011;11456;47.030;15.396;2024-03-25T06:04:37;10.63;;;5.13;;
22579;SDS011;11456;47.030;15.396;2024-03-25T06:07:03;23.83;;;5.05;;
22579;SDS011;11456;47.030;15.396;2024-03-25T06:09:29;8.35;;;4.82;;
22579;SDS011;11456;47.030;15.396;2024-03-25T06:11:56;11.45;;;4.82;;
22579;SDS011;11456;47.030;15.396;2024-03-25T06:14:21;10.88;;;5.25;;
22579;SDS011;11456;47.030;15.396;2024-03-25T06:16:47;18.42;;;5.30;;
22579;SDS011;11456;47.030;15.396;2024-03-25T06:19:13;15.15;;;4.53;;
22579;SDS011;11456;47.030;15.396;2024-03-25T06:21:38;14.45;;;5.18;;
22579;SDS011;11456;47.030;15.396;2024-03-25T06:24:04;15.00;;;5.18;;
22579;SDS011;11456;47.030;15.396;2024-03-25T06:26:30;16.77;;;5.30;;
22579;SDS011;11456;47.030;15.396;2024-03-25T06:28:56;15.57;;;5.32;;
22579;SDS011;11456;47.030;15.396;2024-03-25T06:31:22;12.45;;;5.38;;
22579;SDS011;11456;47.030;15.396;2024-03-25T06:34:06;10.70;;;4.85;;
22579;SDS011;11456;47.030;15.396;2024-03-25T06:36:43;8.93;;;5.10;;
22579;SDS011;11456;47.030;15.396;2024-03-25T06:39:10;16.80;;;5.82;;
22579;SDS011;11456;47.030;15.396;2024-03-25T06:41:36;13.65;;;5.22;;
22579;SDS011;11456;47.030;15.396;2024-03-25T06:44:02;13.50;;;5.38;;
22579;SDS011;11456;47.030;15.396;2024-03-25T06:46:28;15.23;;;6.05;;
22579;SDS011;11456;47.030;15.396;2024-03-25T06:48:53;12.85;;;5.80;;
22579;SDS011;11456;47.030;15.396;2024-03-25T06:51:19;11.75;;;5.43;;
22579;SDS011;11456;47.030;15.396;2024-03-25T06:53:45;18.50;;;5.97;;
22579;SDS011;11456;47.030;15.396;2024-03-25T06:56:12;11.35;;;6.75;;
22579;SDS011;11456;47.030;15.396;2024-03-25T06:58:37;10.20;;;5.28;;
22579;SDS011;11456;47.030;15.396;2024-03-25T07:01:04;12.10;;;5.75;;
22579;SDS011;11456;47.030;15.396;2024-03-25T07:03:31;15.55;;;5.20;;
22579;SDS011;11456;47.030;15.396;2024-03-25T07:05:57;15.80;;;5.38;;
22579;SDS011;11456;47.030;15.396;2024-03-25T07:08:26;13.80;;;5.88;;
22579;SDS011;11456;47.030;15.396;2024-03-25T07:10:52;13.93;;;4.93;;
22579;SDS011;11456;47.030;15.396;2024-03-25T07:13:19;15.15;;;5.00;;
22579;SDS011;11456;47.030;15.396;2024-03-25T07:15:46;12.65;;;5.78;;
22579;SDS011;11456;47.030;15.396;2024-03-25T07:18:12;12.50;;;6.07;;
22579;SDS011;11456;47.030;15.396;2024-03-25T07:20:41;11.77;;;5.30;;
22579;SDS011;11456;47.030;15.396;2024-03-25T07:23:08;9.82;;;5.38;;
22579;SDS011;11456;47.030;15.396;2024-03-25T07:25:34;9.18;;;5.10;;
22579;SDS011;11456;47.030;15.396;2024-03-25T07:28:01;24.58;;;6.10;;
22579;SDS011;11456;47.030;15.396;2024-03-25T07:30:27;14.25;;;6.22;;
22579;SDS011;11456;47.030;15.396;2024-03-25T07:32:54;9.75;;;4.20;;
22579;SDS011;11456;47.030;15.396;2024-03-25T07:35:20;10.70;;;3.67;;
22579;SDS011;11456;47.030;15.396;2024-03-25T07:37:46;8.98;;;4.53;;
22579;SDS011;11456;47.030;15.396;2024-03-25T07:40:12;9.05;;;3.65;;
22579;SDS011;11456;47.030;15.396;2024-03-25T07:42:38;9.10;;;3.97;;
22579;SDS011;11456;47.030;15.396;2024-03-25T07:45:04;8.57;;;3.70;;
22579;SDS011;11456;47.030;15.396;2024-03-25T07:47:31;11.93;;;3.72;;
22579;SDS011;11456;47.030;15.396;2024-03-25T07:49:58;6.10;;;3.88;;
22579;SDS011;11456;47.030;15.396;2024-03-25T07:52:26;17.30;;;5.00;;
22579;SDS011;11456;47.030;15.396;2024-03-25T07:54:53;9.13;;;3.97;;
22579;SDS011;11456;47.030;15.396;2024-03-25T07:57:19;6.55;;;3.40;;
22579;SDS011;11456;47.030;15.396;2024-03-25T07:59:45;18.08;;;3.58;;
22579;SDS011;11456;47.030;15.396;2024-03-25T08:02:11;6.00;;;3.33;;
22579;SDS011;11456;47.030;15.396;2024-03-25T08:04:37;16.05;;;4.75;;
22579;SDS011;11456;47.030;15.396;2024-03-25T08:07:02;12.43;;;5.13;;
22579;SDS011;11456;47.030;15.396;2024-03-25T08:09:28;11.07;;;5.20;;
22579;SDS011;11456;47.030;15.396;2024-03-25T08:11:54;10.73;;;4.43;;
22579;SDS011;11456;47.030;15.396;2024-03-25T08:14:20;9.65;;;4.70;;
22579;SDS011;11456;47.030;15.396;2024-03-25T08:16:46;7.35;;;4.60;;
22579;SDS011;11456;47.030;15.396;2024-03-25T08:19:11;12.65;;;4.60;;
22579;SDS011;11456;47.030;15.396;2024-03-25T08:21:37;12.02;;;5.55;;
22579;SDS011;11456;47.030;15.396;2024-03-25T08:24:03;16.67;;;4.93;;
22579;SDS011;11456;47.030;15.396;2024-03-25T08:26:29;8.02;;;3.50;;
22579;SDS011;11456;47.030;15.396;2024-03-25T08:28:54;8.60;;;3.78;;
22579;SDS011;11456;47.030;15.396;2024-03-25T08:31:20;7.55;;;3.50;;
22579;SDS011;11456;47.030;15.396;2024-03-25T08:33:46;9.52;;;3.55;;
22579;SDS011;11456;47.030;15.396;2024-03-25T08:36:12;9.50;;;3.20;;
22579;SDS011;11456;47.030;15.396;2024-03-25T08:38:37;8.63;;;3.10;;
22579;SDS011;11456;47.030;15.396;2024-03-25T08:41:03;9.70;;;3.13;;
22579;SDS011;11456;47.030;15.396;2024-03-25T08:43:29;9.63;;;2.45;;
22579;SDS011;11456;47.030;15.396;2024-03-25T08:45:55;10.13;;;2.30;;
22579;SDS011;11456;47.030;15.396;2024-03-25T08:48:21;6.88;;;2.25;;
22579;SDS011;11456;47.030;15.396;2024-03-25T08:50:46;9.82;;;2.58;;
22579;SDS011;11456;47.030;15.396;2024-03-25T08:53:12;6.15;;;1.88;;
22579;SDS011;11456;47.030;15.396;2024-03-25T08:55:38;6.43;;;1.55;;
22579;SDS011;11456;47.030;15.396;2024-03-25T08:58:09;4.72;;;1.50;;
22579;SDS011;11456;47.030;15.396;2024-03-25T09:00:34;11.98;;;2.17;;
22579;SDS011;11456;47.030;15.396;2024-03-25T09:03:00;9.93;;;2.58;;
22579;SDS011;11456;47.030;15.396;2024-03-25T09:05:26;10.60;;;2.40;;
22579;SDS011;11456;47.030;15.396;2024-03-25T09:07:51;6.65;;;2.30;;
22579;SDS011;11456;47.030;15.396;2024-03-25T09:10:17;8.88;;;2.10;;
22579;SDS011;11456;47.030;15.396;2024-03-25T09:13:02;4.25;;;1.70;;
22579;SDS011;11456;47.030;15.396;2024-03-25T09:15:28;4.63;;;1.90;;
22579;SDS011;11456;47.030;15.396;2024-03-25T09:17:54;10.23;;;1.85;;
22579;SDS011;11456;47.030;15.396;2024-03-25T09:20:20;10.85;;;1.92;;
22579;SDS011;11456;47.030;15.396;2024-03-25T09:22:46;6.32;;;1.77;;
22579;SDS011;11456;47.030;15.396;2024-03-25T09:25:16;5.88;;;1.50;;
22579;SDS011;11456;47.030;15.396;2024-03-25T09:27:49;7.40;;;1.75;;
22579;SDS011;11456;47.030;15.396;2024-03-25T09:30:16;5.10;;;1.70;;
22579;SDS011;11456;47.030;15.396;2024-03-25T09:32:43;3.70;;;1.77;;
22579;SDS011;11456;47.030;15.396;2024-03-25T09:35:09;4.32;;;1.63;;
22579;SDS011;11456;47.030;15.396;2024-03-25T09:37:35;2.03;;;1.45;;
22579;SDS011;11456;47.030;15.396;2024-03-25T09:40:01;5.25;;;1.30;;
22579;SDS011;11456;47.030;15.396;2024-03-25T09:43:03;4.82;;;1.25;;
22579;SDS011;11456;47.030;15.396;2024-03-25T09:45:25;2.60;;;1.38;;
22579;SDS011;11456;47.030;15.396;2024-03-25T09:47:51;2.35;;;1.33;;
22579;SDS011;11456;47.030;15.396;2024-03-25T09:50:17;4.43;;;1.45;;
22579;SDS011;11456;47.030;15.396;2024-03-25T09:52:46;4.65;;;1.73;;
22579;SDS011;11456;47.030;15.396;2024-03-25T09:55:12;2.20;;;1.30;;
22579;SDS011;11456;47.030;15.396;2024-03-25T09:57:38;4.38;;;1.40;;
22579;SDS011;11456;47.030;15.396;2024-03-25T10:00:06;3.30;;;1.30;;
22579;SDS011;11456;47.030;15.396;2024-03-25T10:02:38;2.63;;;1.30;;
22579;SDS011;11456;47.030;15.396;2024-03-25T10:05:05;2.50;;;1.52;;
22579;SDS011;11456;47.030;15.396;2024-03-25T10:07:33;2.53;;;1.70;;
22579;SDS011;11456;47.030;15.396;2024-03-25T10:10:02;2.60;;;1.30;;
22579;SDS011;11456;47.030;15.396;2024-03-25T10:12:30;6.90;;;1.58;;
22579;SDS011;11456;47.030;15.396;2024-03-25T10:14:56;2.47;;;1.20;;
22579;SDS011;11456;47.030;15.396;2024-03-25T10:17:23;2.58;;;1.50;;
22579;SDS011;11456;47.030;15.396;2024-03-25T10:19:49;2.55;;;1.30;;
22579;SDS011;11456;47.030;15.396;2024-03-25T10:22:14;3.25;;;1.50;;
22579;SDS011;11456;47.030;15.396;2024-03-25T10:24:41;1.95;;;1.30;;
22579;SDS011;11456;47.030;15.396;2024-03-25T10:27:17;2.95;;;1.40;;
22579;SDS011;11456;47.030;15.396;2024-03-25T10:29:47;7.78;;;1.88;;
22579;SDS011;11456;47.030;15.396;2024-03-25T10:32:13;1.77;;;1.25;;
22579;SDS011;11456;47.030;15.396;2024-03-25T10:34:40;2.30;;;1.00;;
22579;SDS011;11456;47.030;15.396;2024-03-25T10:37:07;7.07;;;1.35;;
22579;SDS011;11456;47.030;15.396;2024-03-25T10:39:35;3.47;;;1.00;;
22579;SDS011;11456;47.030;15.396;2024-03-25T10:42:05;2.42;;;1.10;;
22579;SDS011;11456;47.030;15.396;2024-03-25T10:44:32;5.70;;;1.00;;
22579;SDS011;11456;47.030;15.396;2024-03-25T10:47:00;2.08;;;1.10;;
22579;SDS011;11456;47.030;15.396;2024-03-25T10:49:33;2.22;;;0.90;;
22579;SDS011;11456;47.030;15.396;2024-03-25T10:52:04;1.58;;;1.00;;
22579;SDS011;11456;47.030;15.396;2024-03-25T10:54:31;1.15;;;0.82;;
22579;SDS011;11456;47.030;15.396;2024-03-25T10:56:58;0.73;;;0.73;;
22579;SDS011;11456;47.030;15.396;2024-03-25T10:59:25;1.15;;;0.90;;
22579;SDS011;11456;47.030;15.396;2024-03-25T11:01:52;4.15;;;1.20;;
22579;SDS011;11456;47.030;15.396;2024-03-25T11:04:22;2.00;;;0.90;;
22579;SDS011;11456;47.030;15.396;2024-03-25T11:06:50;2.78;;;1.10;;
22579;SDS011;11456;47.030;15.396;2024-03-25T11:09:25;0.90;;;0.80;;
22579;SDS011;11456;47.030;15.396;2024-03-25T11:11:54;1.35;;;0.98;;
22579;SDS011;11456;47.030;15.396;2024-03-25T11:14:20;1.40;;;0.82;;
22579;SDS011;11456;47.030;15.396;2024-03-25T11:16:55;2.90;;;0.80;;
22579;SDS011;11456;47.030;15.396;2024-03-25T11:19:24;1.17;;;1.08;;
22579;SDS011;11456;47.030;15.396;2024-03-25T11:21:52;4.75;;;1.00;;
22579;SDS011;11456;47.030;15.396;2024-03-25T11:24:28;7.90;;;0.90;;
22579;SDS011;11456;47.030;15.396;2024-03-25T11:26:54;4.13;;;1.00;;
22579;SDS011;11456;47.030;15.396;2024-03-25T11:29:20;3.42;;;1.38;;
22579;SDS011;11456;47.030;15.396;2024-03-25T11:31:46;1.63;;;1.00;;
22579;SDS011;11456;47.030;15.396;2024-03-25T11:34:18;7.50;;;1.10;;
22579;SDS011;11456;47.030;15.396;2024-03-25T11:36:44;1.40;;;1.00;;
22579;SDS011;11456;47.030;15.396;2024-03-25T11:39:09;1.17;;;0.90;;
22579;SDS011;11456;47.030;15.396;2024-03-25T11:41:39;2.22;;;0.93;;
22579;SDS011;11456;47.030;15.396;2024-03-25T11:44:05;2.83;;;1.10;;
22579;SDS011;11456;47.030;15.396;2024-03-25T11:46:33;3.40;;;0.90;;
22579;SDS011;11456;47.030;15.396;2024-03-25T11:49:01;2.45;;;1.00;;
22579;SDS011;11456;47.030;15.396;2024-03-25T11:51:28;3.92;;;1.10;;
22579;SDS011;11456;47.030;15.396;2024-03-25T11:53:53;5.55;;;1.05;;
22579;SDS011;11456;47.030;15.396;2024-03-25T11:56:19;3.88;;;1.00;;
22579;SDS011;11456;47.030;15.396;2024-03-25T11:58:45;3.08;;;0.82;;
22579;SDS011;11456;47.030;15.396;2024-03-25T12:01:11;4.20;;;1.10;;
22579;SDS011;11456;47.030;15.396;2024-03-25T12:03:37;0.98;;;0.80;;
22579;SDS011;11456;47.030;15.396;2024-03-25T12:06:02;2.47;;;0.80;;
22579;SDS011;11456;47.030;15.396;2024-03-25T12:08:28;4.40;;;1.10;;
22579;SDS011;11456;47.030;15.396;2024-03-25T12:10:56;3.38;;;1.10;;
22579;SDS011;11456;47.030;15.396;2024-03-25T12:13:40;2.28;;;0.90;;
22579;SDS011;11456;47.030;15.396;2024-03-25T12:16:08;0.82;;;0.80;;
22579;SDS011;11456;47.030;15.396;2024-03-25T12:18:39;3.33;;;1.00;;
22579;SDS011;11456;47.030;15.396;2024-03-25T12:21:06;1.73;;;0.85;;
22579;SDS011;11456;47.030;15.396;2024-03-25T12:23:33;2.90;;;1.00;;
22579;SDS011;11456;47.030;15.396;2024-03-25T12:26:00;1.30;;;1.00;;
22579;SDS011;11456;47.030;15.396;2024-03-25T12:28:26;1.75;;;0.90;;
22579;SDS011;11456;47.030;15.396;2024-03-25T12:30:52;1.77;;;0.95;;
22579;SDS011;11456;47.030;15.396;2024-03-25T12:33:22;2.88;;;0.93;;
22579;SDS011;11456;47.030;15.396;2024-03-25T12:35:49;1.75;;;1.00;;
22579;SDS011;11456;47.030;15.396;2024-03-25T12:38:25;2.30;;;1.00;;
22579;SDS011;11456;47.030;15.396;2024-03-25T12:40:52;1.77;;;0.88;;
22579;SDS011;11456;47.030;15.396;2024-03-25T12:43:19;1.98;;;1.00;;
22579;SDS011;11456;47.030;15.396;2024-03-25T12:45:45;1.80;;;0.98;;
22579;SDS011;11456;47.030;15.396;2024-03-25T12:48:11;1.88;;;0.82;;
22579;SDS011;11456;47.030;15.396;2024-03-25T12:50:37;3.75;;;1.10;;
22579;SDS011;11456;47.030;15.396;2024-03-25T12:53:03;2.92;;;1.00;;
22579;SDS011;11456;47.030;15.396;2024-03-25T12:55:31;3.25;;;1.00;;
22579;SDS011;11456;47.030;15.396;2024-03-25T12:57:57;2.95;;;1.00;;
22579;SDS011;11456;47.030;15.396;2024-03-25T13:00:23;2.75;;;1.10;;
22579;SDS011;11456;47.030;15.396;2024-03-25T13:02:49;1.38;;;0.80;;
22579;SDS011;11456;47.030;15.396;2024-03-25T13:05:16;3.35;;;0.93;;
22579;SDS011;11456;47.030;15.396;2024-03-25T13:07:41;1.08;;;0.82;;
22579;SDS011;11456;47.030;15.396;2024-03-25T13:10:07;2.03;;;1.10;;
22579;SDS011;11456;47.030;15.396;2024-03-25T13:12:33;1.90;;;1.02;;
22579;SDS011;11456;47.030;15.396;2024-03-25T13:14:58;2.15;;;1.13;;
22579;SDS011;11456;47.030;15.396;2024-03-25T13:17:25;2.13;;;1.10;;
22579;SDS011;11456;47.030;15.396;2024-03-25T13:19:51;1.83;;;1.23;;
22579;SDS011;11456;47.030;15.396;2024-03-25T13:22:16;3.50;;;0.95;;
22579;SDS011;11456;47.030;15.396;2024-03-25T13:24:42;8.18;;;1.30;;
22579;SDS011;11456;47.030;15.396;2024-03-25T13:27:08;2.03;;;1.08;;
22579;SDS011;11456;47.030;15.396;2024-03-25T13:29:34;1.35;;;1.08;;
22579;SDS011;11456;47.030;15.396;2024-03-25T13:32:02;1.42;;;0.82;;
22579;SDS011;11456;47.030;15.396;2024-03-25T13:34:28;3.15;;;0.80;;
22579;SDS011;11456;47.030;15.396;2024-03-25T13:36:54;4.28;;;1.10;;
22579;SDS011;11456;47.030;15.396;2024-03-25T13:39:20;1.20;;;0.90;;
22579;SDS011;11456;47.030;15.396;2024-03-25T13:41:46;10.65;;;1.20;;
22579;SDS011;11456;47.030;15.396;2024-03-25T13:44:12;2.13;;;1.08;;
22579;SDS011;11456;47.030;15.396;2024-03-25T13:46:37;2.15;;;1.00;;
22579;SDS011;11456;47.030;15.396;2024-03-25T13:49:03;3.38;;;1.60;;
22579;SDS011;11456;47.030;15.396;2024-03-25T13:51:29;0.95;;;0.90;;
22579;SDS011;11456;47.030;15.396;2024-03-25T13:53:54;1.67;;;0.80;;
22579;SDS011;11456;47.030;15.396;2024-03-25T13:56:20;0.73;;;0.73;;
22579;SDS011;11456;47.030;15.396;2024-03-25T13:58:45;3.20;;;1.10;;
22579;SDS011;11456;47.030;15.396;2024-03-25T14:01:12;1.92;;;1.10;;
22579;SDS011;11456;47.030;15.396;2024-03-25T14:03:37;1.92;;;0.90;;
22579;SDS011;11456;47.030;15.396;2024-03-25T14:06:03;1.73;;;1.00;;
22579;SDS011;11456;47.030;15.396;2024-03-25T14:08:29;2.08;;;0.98;;
22579;SDS011;11456;47.030;15.396;2024-03-25T14:10:58;1.98;;;0.95;;
22579;SDS011;11456;47.030;15.396;2024-03-25T14:13:25;2.33;;;0.65;;
22579;SDS011;11456;47.030;15.396;2024-03-25T14:15:51;2.88;;;0.90;;
22579;SDS011;11456;47.030;15.396;2024-03-25T14:18:17;1.17;;;0.70;;
22579;SDS011;11456;47.030;15.396;2024-03-25T14:20:43;2.72;;;1.05;;
22579;SDS011;11456;47.030;15.396;2024-03-25T14:23:08;1.33;;;0.88;;
22579;SDS011;11456;47.030;15.396;2024-03-25T14:25:34;1.63;;;1.00;;
22579;SDS011;11456;47.030;15.396;2024-03-25T14:28:00;1.30;;;0.82;;
22579;SDS011;11456;47.030;15.396;2024-03-25T14:30:25;3.58;;;0.98;;